sensor_id;sensor_type;location;lat;lon;timestamp;pressure;altitude;pressure_sealevel;temperature;humidity
50057;BME280;36875;49.468;11.200;2022-12-01T00:01:11;98466.16;;;24.86;32.99
50057;BME280;36875;49.468;11.200;2022-12-01T00:03:37;98479.84;;;25.04;32.45
50057;BME280;36875;49.468;11.200;2022-12-01T00:06:06;98461.59;;;24.90;32.78
50057;BME280;36875;49.468;11.200;2022-12-01T00:08:33;98468.06;;;24.94;32.87
50057;BME280;36875;49.468;11.200;2022-12-01T00:11:02;98471.88;;;24.72;33.41
50057;BME280;36875;49.468;11.200;2022-12-01T00:13:28;98467.34;;;24.68;33.17
50057;BME280;36875;49.468;11.200;2022-12-01T00:15:54;98462.16;;;24.75;33.38
50057;BME280;36875;49.468;11.200;2022-12-01T00:18:19;98447.47;;;24.53;33.10
50057;BME280;36875;49.468;11.200;2022-12-01T00:20:45;98472.53;;;24.52;33.48
50057;BME280;36875;49.468;11.200;2022-12-01T00:23:14;98465.59;;;24.46;33.29
50057;BME280;36875;49.468;11.200;2022-12-01T00:25:40;98471.25;;;24.49;33.21
50057;BME280;36875;49.468;11.200;2022-12-01T00:28:08;98464.50;;;24.38;33.13
50057;BME280;36875;49.468;11.200;2022-12-01T00:30:33;98475.81;;;24.54;33.28
50057;BME280;36875;49.468;11.200;2022-12-01T00:32:59;98473.22;;;24.49;33.07
50057;BME280;36875;49.468;11.200;2022-12-01T00:35:24;98466.63;;;24.32;33.56
50057;BME280;36875;49.468;11.200;2022-12-01T00:37:50;98468.22;;;24.33;33.63
50057;BME280;36875;49.468;11.200;2022-12-01T00:40:17;98474.69;;;24.37;33.49
50057;BME280;36875;49.468;11.200;2022-12-01T00:42:42;98470.97;;;24.33;33.35
50057;BME280;36875;49.468;11.200;2022-12-01T00:45:09;98480.84;;;24.25;33.63
50057;BME280;36875;49.468;11.200;2022-12-01T00:47:35;98477.31;;;24.25;33.43
50057;BME280;36875;49.468;11.200;2022-12-01T00:50:00;98480.22;;;24.20;33.89
50057;BME280;36875;49.468;11.200;2022-12-01T00:52:26;98484.13;;;24.19;33.55
50057;BME280;36875;49.468;11.200;2022-12-01T00:54:51;98479.25;;;23.98;33.90
50057;BME280;36875;49.468;11.200;2022-12-01T00:57:18;98475.53;;;24.03;33.79
50057;BME280;36875;49.468;11.200;2022-12-01T00:59:44;98477.16;;;23.95;33.98
50057;BME280;36875;49.468;11.200;2022-12-01T01:02:09;98477.00;;;24.00;33.76
50057;BME280;36875;49.468;11.200;2022-12-01T01:04:35;98475.22;;;23.87;34.24
50057;BME280;36875;49.468;11.200;2022-12-01T01:07:01;98480.53;;;23.75;34.30
50057;BME280;36875;49.468;11.200;2022-12-01T01:09:27;98472.13;;;23.71;34.17
50057;BME280;36875;49.468;11.200;2022-12-01T01:11:52;98483.63;;;23.82;34.11
50057;BME280;36875;49.468;11.200;2022-12-01T01:14:19;98463.88;;;23.62;34.20
50057;BME280;36875;49.468;11.200;2022-12-01T01:16:45;98475.34;;;23.64;34.23
50057;BME280;36875;49.468;11.200;2022-12-01T01:19:10;98484.69;;;23.63;34.51
50057;BME280;36875;49.468;11.200;2022-12-01T01:21:36;98484.56;;;23.68;34.24
50057;BME280;36875;49.468;11.200;2022-12-01T01:24:01;98487.44;;;23.63;34.28
50057;BME280;36875;49.468;11.200;2022-12-01T01:26:29;98484.53;;;23.60;34.58
50057;BME280;36875;49.468;11.200;2022-12-01T01:28:57;98470.31;;;23.40;34.30
50057;BME280;36875;49.468;11.200;2022-12-01T01:31:26;98485.00;;;23.44;34.51
50057;BME280;36875;49.468;11.200;2022-12-01T01:33:53;98487.25;;;23.34;34.79
50057;BME280;36875;49.468;11.200;2022-12-01T01:36:19;98490.31;;;23.32;34.75
50057;BME280;36875;49.468;11.200;2022-12-01T01:38:45;98479.16;;;23.28;34.86
50057;BME280;36875;49.468;11.200;2022-12-01T01:41:11;98474.13;;;23.22;34.68
50057;BME280;36875;49.468;11.200;2022-12-01T01:43:40;98489.16;;;23.24;34.78
50057;BME280;36875;49.468;11.200;2022-12-01T01:46:07;98484.28;;;23.21;34.79
50057;BME280;36875;49.468;11.200;2022-12-01T01:48:35;98486.91;;;23.18;34.74
50057;BME280;36875;49.468;11.200;2022-12-01T01:51:02;98476.84;;;23.13;34.74
50057;BME280;36875;49.468;11.200;2022-12-01T01:53:28;98487.66;;;23.09;34.90
50057;BME280;36875;49.468;11.200;2022-12-01T01:55:54;98487.09;;;22.99;35.34
50057;BME280;36875;49.468;11.200;2022-12-01T01:58:19;98487.75;;;22.96;35.06
50057;BME280;36875;49.468;11.200;2022-12-01T02:00:45;98493.09;;;23.01;35.02
50057;BME280;36875;49.468;11.200;2022-12-01T02:03:14;98495.47;;;22.94;35.04
50057;BME280;36875;49.468;11.200;2022-12-01T02:05:42;98494.31;;;22.86;35.20
50057;BME280;36875;49.468;11.200;2022-12-01T02:08:09;98485.22;;;22.77;35.07
50057;BME280;36875;49.468;11.200;2022-12-01T02:10:49;98486.72;;;22.83;35.15
50057;BME280;36875;49.468;11.200;2022-12-01T02:13:25;98482.97;;;22.79;35.44
50057;BME280;36875;49.468;11.200;2022-12-01T02:15:58;98493.59;;;22.71;35.37
50057;BME280;36875;49.468;11.200;2022-12-01T02:18:32;98481.63;;;22.67;35.41
50057;BME280;36875;49.468;11.200;2022-12-01T02:21:22;98490.34;;;22.61;35.38
50057;BME280;36875;49.468;11.200;2022-12-01T02:24:12;98491.25;;;22.56;35.69
50057;BME280;36875;49.468;11.200;2022-12-01T02:26:48;98486.72;;;22.51;35.44
50057;BME280;36875;49.468;11.200;2022-12-01T02:32:12;98469.38;;;22.33;35.75
50057;BME280;36875;49.468;11.200;2022-12-01T02:34:43;98477.59;;;22.33;35.67
50057;BME280;36875;49.468;11.200;2022-12-01T02:37:20;98477.59;;;22.33;35.92
50057;BME280;36875;49.468;11.200;2022-12-01T02:39:54;98474.00;;;22.33;35.67
50057;BME280;36875;49.468;11.200;2022-12-01T02:42:27;98471.63;;;22.31;35.83
50057;BME280;36875;49.468;11.200;2022-12-01T02:45:13;98468.47;;;22.24;35.77
50057;BME280;36875;49.468;11.200;2022-12-01T02:47:43;98470.53;;;22.19;35.98
50057;BME280;36875;49.468;11.200;2022-12-01T02:50:10;98458.34;;;22.11;35.98
50057;BME280;36875;49.468;11.200;2022-12-01T02:52:37;98461.25;;;22.06;35.96
50057;BME280;36875;49.468;11.200;2022-12-01T02:55:04;98466.78;;;22.14;35.88
50057;BME280;36875;49.468;11.200;2022-12-01T02:57:29;98469.78;;;22.04;36.01
50057;BME280;36875;49.468;11.200;2022-12-01T02:59:55;98471.19;;;22.02;36.21
50057;BME280;36875;49.468;11.200;2022-12-01T03:02:32;98460.88;;;21.99;36.21
50057;BME280;36875;49.468;11.200;2022-12-01T03:05:09;98458.25;;;21.93;36.71
50057;BME280;36875;49.468;11.200;2022-12-01T03:07:46;98453.56;;;21.94;36.12
50057;BME280;36875;49.468;11.200;2022-12-01T03:10:20;98448.53;;;21.87;36.38
50057;BME280;36875;49.468;11.200;2022-12-01T03:13:00;98448.34;;;21.84;36.15
50057;BME280;36875;49.468;11.200;2022-12-01T03:15:32;98456.06;;;21.82;36.14
50057;BME280;36875;49.468;11.200;2022-12-01T03:18:08;98455.03;;;21.78;36.40
50057;BME280;36875;49.468;11.200;2022-12-01T03:20:43;98450.22;;;21.74;36.48
50057;BME280;36875;49.468;11.200;2022-12-01T03:23:15;98447.88;;;21.68;36.45
50057;BME280;36875;49.468;11.200;2022-12-01T03:25:45;98458.53;;;21.69;36.40
50057;BME280;36875;49.468;11.200;2022-12-01T03:28:14;98464.63;;;21.66;36.31
50057;BME280;36875;49.468;11.200;2022-12-01T03:30:41;98459.16;;;21.66;36.67
50057;BME280;36875;49.468;11.200;2022-12-01T03:33:10;98459.88;;;21.58;36.55
50057;BME280;36875;49.468;11.200;2022-12-01T03:35:44;98447.31;;;21.57;36.73
50057;BME280;36875;49.468;11.200;2022-12-01T03:38:16;98449.84;;;21.53;36.46
50057;BME280;36875;49.468;11.200;2022-12-01T03:40:47;98454.53;;;21.53;36.79
50057;BME280;36875;49.468;11.200;2022-12-01T03:43:18;98452.19;;;21.46;36.66
50057;BME280;36875;49.468;11.200;2022-12-01T03:45:51;98448.66;;;21.46;36.76
50057;BME280;36875;49.468;11.200;2022-12-01T03:48:19;98452.28;;;21.41;36.68
50057;BME280;36875;49.468;11.200;2022-12-01T03:50:55;98440.56;;;21.27;36.84
50057;BME280;36875;49.468;11.200;2022-12-01T03:53:23;98463.34;;;21.36;36.73
50057;BME280;36875;49.468;11.200;2022-12-01T03:55:57;98450.06;;;21.29;36.74
50057;BME280;36875;49.468;11.200;2022-12-01T03:58:28;98437.13;;;21.21;36.98
50057;BME280;36875;49.468;11.200;2022-12-01T04:00:57;98461.03;;;21.29;36.91
50057;BME280;36875;49.468;11.200;2022-12-01T04:03:24;98449.19;;;21.20;37.04
50057;BME280;36875;49.468;11.200;2022-12-01T04:05:51;98445.84;;;21.23;37.11
50057;BME280;36875;49.468;11.200;2022-12-01T04:08:17;98443.69;;;21.20;37.04
50057;BME280;36875;49.468;11.200;2022-12-01T04:10:43;98458.81;;;21.17;36.85
50057;BME280;36875;49.468;11.200;2022-12-01T04:13:08;98449.28;;;21.15;37.26
50057;BME280;36875;49.468;11.200;2022-12-01T04:15:41;98456.47;;;21.11;36.85
50057;BME280;36875;49.468;11.200;2022-12-01T04:18:07;98452.25;;;21.05;36.96
50057;BME280;36875;49.468;11.200;2022-12-01T04:20:33;98452.53;;;21.03;36.99
50057;BME280;36875;49.468;11.200;2022-12-01T04:22:59;98444.63;;;21.02;37.26
50057;BME280;36875;49.468;11.200;2022-12-01T04:25:25;98440.88;;;20.97;37.16
50057;BME280;36875;49.468;11.200;2022-12-01T04:27:50;98454.56;;;20.97;37.31
50057;BME280;36875;49.468;11.200;2022-12-01T04:30:16;98450.19;;;20.96;37.28
50057;BME280;36875;49.468;11.200;2022-12-01T04:32:43;98439.97;;;20.88;37.67
50057;BME280;36875;49.468;11.200;2022-12-01T04:35:11;98445.44;;;20.88;37.43
50057;BME280;36875;49.468;11.200;2022-12-01T04:37:37;98444.94;;;20.86;37.37
50057;BME280;36875;49.468;11.200;2022-12-01T04:40:05;98443.31;;;20.85;37.21
50057;BME280;36875;49.468;11.200;2022-12-01T04:42:31;98420.09;;;20.69;37.22
50057;BME280;36875;49.468;11.200;2022-12-01T04:44:56;98444.22;;;20.80;37.11
50057;BME280;36875;49.468;11.200;2022-12-01T04:47:22;98440.69;;;20.80;37.48
50057;BME280;36875;49.468;11.200;2022-12-01T04:49:47;98438.66;;;20.72;37.33
50057;BME280;36875;49.468;11.200;2022-12-01T04:52:13;98441.69;;;20.70;37.46
50057;BME280;36875;49.468;11.200;2022-12-01T04:54:38;98443.13;;;20.68;37.42
50057;BME280;36875;49.468;11.200;2022-12-01T04:57:05;98452.13;;;20.68;37.33
50057;BME280;36875;49.468;11.200;2022-12-01T04:59:30;98451.31;;;20.68;37.60
50057;BME280;36875;49.468;11.200;2022-12-01T05:01:56;98450.78;;;20.66;37.77
50057;BME280;36875;49.468;11.200;2022-12-01T05:04:21;98452.50;;;20.62;37.75
50057;BME280;36875;49.468;11.200;2022-12-01T05:06:47;98460.97;;;20.60;37.64
50057;BME280;36875;49.468;11.200;2022-12-01T05:09:14;98458.53;;;20.58;37.44
50057;BME280;36875;49.468;11.200;2022-12-01T05:11:40;98456.94;;;20.57;37.55
50057;BME280;36875;49.468;11.200;2022-12-01T05:14:06;98452.06;;;20.54;37.62
50057;BME280;36875;49.468;11.200;2022-12-01T05:16:33;98455.09;;;20.53;37.40
50057;BME280;36875;49.468;11.200;2022-12-01T05:18:59;98446.69;;;20.49;37.56
50057;BME280;36875;49.468;11.200;2022-12-01T05:21:45;98438.81;;;20.48;37.68
50057;BME280;36875;49.468;11.200;2022-12-01T05:24:11;98435.25;;;20.47;37.55
50057;BME280;36875;49.468;11.200;2022-12-01T05:26:37;98431.59;;;20.38;37.58
50057;BME280;36875;49.468;11.200;2022-12-01T05:29:03;98420.22;;;20.31;37.76
50057;BME280;36875;49.468;11.200;2022-12-01T05:31:30;98441.72;;;20.37;37.71
50057;BME280;36875;49.468;11.200;2022-12-01T05:33:56;98447.19;;;20.37;37.84
50057;BME280;36875;49.468;11.200;2022-12-01T05:36:21;98447.47;;;20.36;37.64
50057;BME280;36875;49.468;11.200;2022-12-01T05:38:47;98448.59;;;20.35;37.43
50057;BME280;36875;49.468;11.200;2022-12-01T05:41:13;98447.56;;;20.31;37.72
50057;BME280;36875;49.468;11.200;2022-12-01T05:43:39;98440.88;;;20.23;37.59
50057;BME280;36875;49.468;11.200;2022-12-01T05:46:04;98450.41;;;20.26;38.04
50057;BME280;36875;49.468;11.200;2022-12-01T05:48:31;98441.66;;;20.23;37.89
50057;BME280;36875;49.468;11.200;2022-12-01T05:50:57;98441.16;;;20.21;37.89
50057;BME280;36875;49.468;11.200;2022-12-01T05:53:22;98448.84;;;20.19;37.95
50057;BME280;36875;49.468;11.200;2022-12-01T05:55:51;98446.72;;;20.16;38.02
50057;BME280;36875;49.468;11.200;2022-12-01T05:58:17;98423.41;;;20.05;38.02
50057;BME280;36875;49.468;11.200;2022-12-01T06:00:42;98441.84;;;20.13;37.76
50057;BME280;36875;49.468;11.200;2022-12-01T06:03:08;98450.66;;;20.10;38.17
50057;BME280;36875;49.468;11.200;2022-12-01T06:05:35;98449.31;;;20.08;37.84
50057;BME280;36875;49.468;11.200;2022-12-01T06:08:00;98447.69;;;20.07;37.74
50057;BME280;36875;49.468;11.200;2022-12-01T06:10:26;98446.88;;;20.06;38.13
50057;BME280;36875;49.468;11.200;2022-12-01T06:12:51;98443.66;;;20.04;37.79
50057;BME280;36875;49.468;11.200;2022-12-01T06:15:17;98445.38;;;20.00;38.17
50057;BME280;36875;49.468;11.200;2022-12-01T06:17:42;98444.63;;;19.94;38.03
50057;BME280;36875;49.468;11.200;2022-12-01T06:20:09;98452.22;;;19.97;38.20
50057;BME280;36875;49.468;11.200;2022-12-01T06:22:36;98445.44;;;19.95;38.25
50057;BME280;36875;49.468;11.200;2022-12-01T06:25:03;98447.66;;;19.93;37.90
50057;BME280;36875;49.468;11.200;2022-12-01T06:27:28;98454.00;;;19.88;38.31
50057;BME280;36875;49.468;11.200;2022-12-01T06:29:54;98450.47;;;19.88;38.28
50057;BME280;36875;49.468;11.200;2022-12-01T06:32:19;98456.50;;;19.84;37.99
50057;BME280;36875;49.468;11.200;2022-12-01T06:34:45;98458.72;;;19.82;38.25
50057;BME280;36875;49.468;11.200;2022-12-01T06:37:10;98456.41;;;19.76;38.45
50057;BME280;36875;49.468;11.200;2022-12-01T06:39:37;98458.88;;;19.72;38.16
50057;BME280;36875;49.468;11.200;2022-12-01T06:42:03;98459.44;;;19.69;38.09
50057;BME280;36875;49.468;11.200;2022-12-01T06:44:29;98459.44;;;19.69;39.23
50057;BME280;36875;49.468;11.200;2022-12-01T06:46:55;98460.31;;;19.64;39.26
50057;BME280;36875;49.468;11.200;2022-12-01T06:49:21;98465.56;;;19.61;38.90
50057;BME280;36875;49.468;11.200;2022-12-01T06:51:46;98462.31;;;19.59;39.07
50057;BME280;36875;49.468;11.200;2022-12-01T06:54:13;98463.44;;;19.58;39.22
50057;BME280;36875;49.468;11.200;2022-12-01T06:56:41;98464.19;;;19.63;38.95
50057;BME280;36875;49.468;11.200;2022-12-01T06:59:07;98463.28;;;19.68;38.86
50057;BME280;36875;49.468;11.200;2022-12-01T07:01:33;98461.31;;;19.74;38.84
50057;BME280;36875;49.468;11.200;2022-12-01T07:03:58;98468.06;;;19.81;38.91
50057;BME280;36875;49.468;11.200;2022-12-01T07:06:24;98467.06;;;19.91;38.72
50057;BME280;36875;49.468;11.200;2022-12-01T07:08:52;98469.34;;;20.03;38.95
50057;BME280;36875;49.468;11.200;2022-12-01T07:11:17;98478.03;;;20.05;38.75
50057;BME280;36875;49.468;11.200;2022-12-01T07:13:44;98473.13;;;20.07;38.74
50057;BME280;36875;49.468;11.200;2022-12-01T07:16:10;98475.06;;;20.20;38.83
50057;BME280;36875;49.468;11.200;2022-12-01T07:18:36;98479.78;;;20.34;38.61
50057;BME280;36875;49.468;11.200;2022-12-01T07:21:02;98477.81;;;20.53;38.21
50057;BME280;36875;49.468;11.200;2022-12-01T07:23:29;98472.91;;;20.50;37.97
50057;BME280;36875;49.468;11.200;2022-12-01T07:25:58;98464.84;;;20.59;37.58
50057;BME280;36875;49.468;11.200;2022-12-01T07:28:23;98468.56;;;20.96;36.99
50057;BME280;36875;49.468;11.200;2022-12-01T07:30:50;98476.53;;;21.06;36.63
50057;BME280;36875;49.468;11.200;2022-12-01T07:33:16;98481.41;;;21.51;35.98
50057;BME280;36875;49.468;11.200;2022-12-01T07:35:41;98484.75;;;21.48;36.17
50057;BME280;36875;49.468;11.200;2022-12-01T07:38:07;98479.66;;;21.55;36.30
50057;BME280;36875;49.468;11.200;2022-12-01T07:40:32;98483.47;;;21.82;35.67
50057;BME280;36875;49.468;11.200;2022-12-01T07:42:58;98488.66;;;22.06;35.74
50057;BME280;36875;49.468;11.200;2022-12-01T07:45:23;98487.50;;;22.75;34.43
50057;BME280;36875;49.468;11.200;2022-12-01T07:47:52;98485.59;;;22.52;34.58
50057;BME280;36875;49.468;11.200;2022-12-01T07:50:18;98478.34;;;22.88;34.11
50057;BME280;36875;49.468;11.200;2022-12-01T07:52:44;98481.94;;;22.66;34.63
50057;BME280;36875;49.468;11.200;2022-12-01T07:55:13;98479.16;;;23.20;33.76
50057;BME280;36875;49.468;11.200;2022-12-01T07:57:38;98481.47;;;23.44;33.21
50057;BME280;36875;49.468;11.200;2022-12-01T08:00:05;98450.50;;;23.12;33.58
50057;BME280;36875;49.468;11.200;2022-12-01T08:02:32;98480.91;;;23.24;33.80
50057;BME280;36875;49.468;11.200;2022-12-01T08:04:59;98479.16;;;23.20;33.72
50057;BME280;36875;49.468;11.200;2022-12-01T08:07:25;98479.94;;;23.20;33.90
50057;BME280;36875;49.468;11.200;2022-12-01T08:09:50;98481.56;;;23.21;33.81
50057;BME280;36875;49.468;11.200;2022-12-01T08:12:16;98483.50;;;23.21;33.96
50057;BME280;36875;49.468;11.200;2022-12-01T08:14:41;98483.88;;;22.97;34.40
50057;BME280;36875;49.468;11.200;2022-12-01T08:17:07;98483.16;;;22.82;34.65
50057;BME280;36875;49.468;11.200;2022-12-01T08:19:32;98483.88;;;22.97;34.51
50057;BME280;36875;49.468;11.200;2022-12-01T08:21:59;98486.19;;;23.12;34.34
50057;BME280;36875;49.468;11.200;2022-12-01T08:24:24;98483.47;;;23.12;33.99
50057;BME280;36875;49.468;11.200;2022-12-01T08:26:50;98482.09;;;23.01;34.43
50057;BME280;36875;49.468;11.200;2022-12-01T08:29:16;98481.84;;;23.11;34.41
50057;BME280;36875;49.468;11.200;2022-12-01T08:31:41;98478.38;;;22.97;34.42
50057;BME280;36875;49.468;11.200;2022-12-01T08:34:07;98472.81;;;23.11;34.22
50057;BME280;36875;49.468;11.200;2022-12-01T08:36:33;98479.13;;;22.80;34.78
50057;BME280;36875;49.468;11.200;2022-12-01T08:39:00;98470.94;;;22.88;34.39
50057;BME280;36875;49.468;11.200;2022-12-01T08:41:26;98475.63;;;22.97;34.52
50057;BME280;36875;49.468;11.200;2022-12-01T08:43:53;98482.59;;;23.03;34.39
50057;BME280;36875;49.468;11.200;2022-12-01T08:46:18;98481.63;;;23.47;33.66
50057;BME280;36875;49.468;11.200;2022-12-01T08:48:44;98476.00;;;23.53;33.33
50057;BME280;36875;49.468;11.200;2022-12-01T08:51:11;98480.97;;;23.42;33.93
50057;BME280;36875;49.468;11.200;2022-12-01T08:53:39;98484.94;;;23.93;33.24
50057;BME280;36875;49.468;11.200;2022-12-01T08:56:09;98476.03;;;24.22;32.43
50057;BME280;36875;49.468;11.200;2022-12-01T08:58:35;98482.81;;;24.16;32.91
50057;BME280;36875;49.468;11.200;2022-12-01T09:01:01;98493.97;;;23.85;33.57
50057;BME280;36875;49.468;11.200;2022-12-01T09:03:27;98497.06;;;23.92;33.33
50057;BME280;36875;49.468;11.200;2022-12-01T09:05:53;98494.28;;;24.27;32.62
50057;BME280;36875;49.468;11.200;2022-12-01T09:08:18;98494.47;;;24.04;33.27
50057;BME280;36875;49.468;11.200;2022-12-01T09:10:56;98505.75;;;24.47;32.13
50057;BME280;36875;49.468;11.200;2022-12-01T09:13:24;98505.13;;;24.32;32.82
50057;BME280;36875;49.468;11.200;2022-12-01T09:15:53;98500.75;;;24.31;32.44
50057;BME280;36875;49.468;11.200;2022-12-01T09:18:19;98502.69;;;24.39;32.38
50057;BME280;36875;49.468;11.200;2022-12-01T09:20:44;98509.97;;;24.18;32.75
50057;BME280;36875;49.468;11.200;2022-12-01T09:23:11;98506.88;;;24.46;32.52
50057;BME280;36875;49.468;11.200;2022-12-01T09:25:36;98501.84;;;24.48;31.95
50057;BME280;36875;49.468;11.200;2022-12-01T09:28:02;98505.56;;;24.60;32.13
50057;BME280;36875;49.468;11.200;2022-12-01T09:30:29;98499.78;;;24.27;32.87
50057;BME280;36875;49.468;11.200;2022-12-01T09:32:54;98507.41;;;24.30;32.55
50057;BME280;36875;49.468;11.200;2022-12-01T09:35:20;98497.50;;;24.20;32.66
50057;BME280;36875;49.468;11.200;2022-12-01T09:37:45;98496.22;;;24.09;33.11
50057;BME280;36875;49.468;11.200;2022-12-01T09:40:13;98497.06;;;24.10;33.02
50057;BME280;36875;49.468;11.200;2022-12-01T09:42:39;98499.41;;;24.46;32.42
50057;BME280;36875;49.468;11.200;2022-12-01T09:45:09;98495.88;;;24.54;32.29
50057;BME280;36875;49.468;11.200;2022-12-01T09:47:44;98487.00;;;24.31;32.98
50057;BME280;36875;49.468;11.200;2022-12-01T09:50:13;98491.69;;;24.31;33.28
50057;BME280;36875;49.468;11.200;2022-12-01T09:52:41;98492.16;;;24.41;32.88
50057;BME280;36875;49.468;11.200;2022-12-01T09:55:10;98483.44;;;24.31;32.95
50057;BME280;36875;49.468;11.200;2022-12-01T09:57:37;98489.06;;;24.69;32.30
50057;BME280;36875;49.468;11.200;2022-12-01T10:00:09;98487.91;;;24.70;32.52
50057;BME280;36875;49.468;11.200;2022-12-01T10:02:39;98486.78;;;24.71;32.23
50057;BME280;36875;49.468;11.200;2022-12-01T10:05:12;98475.16;;;24.57;32.63
50057;BME280;36875;49.468;11.200;2022-12-01T10:07:43;98481.94;;;24.51;32.54
50057;BME280;36875;49.468;11.200;2022-12-01T10:10:12;98469.50;;;24.44;32.67
50057;BME280;36875;49.468;11.200;2022-12-01T10:12:40;98468.69;;;24.35;33.44
50057;BME280;36875;49.468;11.200;2022-12-01T10:15:15;98465.31;;;24.56;32.73
50057;BME280;36875;49.468;11.200;2022-12-01T10:17:51;98456.34;;;24.68;32.73
50057;BME280;36875;49.468;11.200;2022-12-01T10:20:25;98453.91;;;24.66;32.70
50057;BME280;36875;49.468;11.200;2022-12-01T10:23:06;98459.13;;;24.50;32.85
50057;BME280;36875;49.468;11.200;2022-12-01T10:25:40;98449.16;;;24.84;32.53
50057;BME280;36875;49.468;11.200;2022-12-01T10:28:38;98448.63;;;24.52;32.68
50057;BME280;36875;49.468;11.200;2022-12-01T10:31:15;98445.56;;;24.54;32.87
50057;BME280;36875;49.468;11.200;2022-12-01T10:33:51;98443.84;;;24.14;33.84
50057;BME280;36875;49.468;11.200;2022-12-01T10:36:22;98450.44;;;24.31;33.54
50057;BME280;36875;49.468;11.200;2022-12-01T10:38:47;98441.00;;;24.40;32.97
50057;BME280;36875;49.468;11.200;2022-12-01T10:41:14;98437.63;;;24.43;32.95
50057;BME280;36875;49.468;11.200;2022-12-01T10:43:44;98439.88;;;24.50;32.86
50057;BME280;36875;49.468;11.200;2022-12-01T10:46:20;98436.03;;;24.34;33.45
50057;BME280;36875;49.468;11.200;2022-12-01T10:48:52;98436.06;;;24.16;33.61
50057;BME280;36875;49.468;11.200;2022-12-01T10:51:18;98431.88;;;24.10;33.71
50057;BME280;36875;49.468;11.200;2022-12-01T10:53:46;98428.50;;;23.96;33.97
50057;BME280;36875;49.468;11.200;2022-12-01T10:56:13;98431.72;;;24.07;34.06
50057;BME280;36875;49.468;11.200;2022-12-01T10:58:43;98426.88;;;23.95;33.82
50057;BME280;36875;49.468;11.200;2022-12-01T11:01:16;98430.75;;;23.94;33.93
50057;BME280;36875;49.468;11.200;2022-12-01T11:03:42;98429.13;;;24.01;33.77
50057;BME280;36875;49.468;11.200;2022-12-01T11:06:09;98430.13;;;23.97;33.97
50057;BME280;36875;49.468;11.200;2022-12-01T11:08:38;98418.66;;;23.86;34.02
50057;BME280;36875;49.468;11.200;2022-12-01T11:11:22;98421.34;;;23.68;34.09
50057;BME280;36875;49.468;11.200;2022-12-01T11:13:49;98408.13;;;23.88;34.03
50057;BME280;36875;49.468;11.200;2022-12-01T11:16:33;98420.41;;;23.99;34.11
50057;BME280;36875;49.468;11.200;2022-12-01T11:19:07;98417.81;;;23.94;34.13
50057;BME280;36875;49.468;11.200;2022-12-01T11:21:33;98418.00;;;23.80;34.56
50057;BME280;36875;49.468;11.200;2022-12-01T11:23:58;98403.28;;;23.67;34.45
50057;BME280;36875;49.468;11.200;2022-12-01T11:26:26;98407.44;;;23.65;34.60
50057;BME280;36875;49.468;11.200;2022-12-01T11:28:56;98411.03;;;23.65;34.69
50057;BME280;36875;49.468;11.200;2022-12-01T11:31:34;98409.88;;;23.58;34.59
50057;BME280;36875;49.468;11.200;2022-12-01T11:34:01;98413.94;;;23.86;34.35
50057;BME280;36875;49.468;11.200;2022-12-01T11:36:34;98405.84;;;23.64;34.44
50057;BME280;36875;49.468;11.200;2022-12-01T11:39:00;98414.09;;;23.55;34.88
50057;BME280;36875;49.468;11.200;2022-12-01T11:41:32;98410.38;;;23.51;34.67
50057;BME280;36875;49.468;11.200;2022-12-01T11:44:01;98406.66;;;23.64;34.21
50057;BME280;36875;49.468;11.200;2022-12-01T11:46:33;98399.06;;;23.79;33.89
50057;BME280;36875;49.468;11.200;2022-12-01T11:49:00;98413.75;;;24.00;33.95
50057;BME280;36875;49.468;11.200;2022-12-01T11:51:29;98418.94;;;24.11;33.99
50057;BME280;36875;49.468;11.200;2022-12-01T11:54:06;98416.06;;;23.90;34.22
50057;BME280;36875;49.468;11.200;2022-12-01T11:56:33;98413.16;;;23.86;34.51
50057;BME280;36875;49.468;11.200;2022-12-01T11:59:01;98407.00;;;23.80;34.51
50057;BME280;36875;49.468;11.200;2022-12-01T12:01:36;98397.44;;;23.78;34.44
50057;BME280;36875;49.468;11.200;2022-12-01T12:04:14;98409.41;;;23.82;34.69
50057;BME280;36875;49.468;11.200;2022-12-01T12:06:48;98389.38;;;23.90;34.46
50057;BME280;36875;49.468;11.200;2022-12-01T12:09:37;98397.44;;;23.95;34.53
50057;BME280;36875;49.468;11.200;2022-12-01T12:12:16;98409.41;;;24.08;34.23
50057;BME280;36875;49.468;11.200;2022-12-01T12:14:51;98402.94;;;23.86;34.01
50057;BME280;36875;49.468;11.200;2022-12-01T12:17:46;98372.88;;;23.64;33.81
50057;BME280;36875;49.468;11.200;2022-12-01T12:20:26;98393.84;;;24.21;33.84
50057;BME280;36875;49.468;11.200;2022-12-01T12:23:06;98391.56;;;24.23;34.19
50057;BME280;36875;49.468;11.200;2022-12-01T12:25:46;98390.06;;;24.34;34.12
50057;BME280;36875;49.468;11.200;2022-12-01T12:28:29;98390.41;;;24.24;34.65
50057;BME280;36875;49.468;11.200;2022-12-01T12:31:07;98382.78;;;24.30;34.10
50057;BME280;36875;49.468;11.200;2022-12-01T12:36:29;98386.56;;;24.16;34.61
50057;BME280;36875;49.468;11.200;2022-12-01T12:39:04;98384.59;;;24.17;34.66
50057;BME280;36875;49.468;11.200;2022-12-01T12:41:37;98381.22;;;24.20;34.61
50057;BME280;36875;49.468;11.200;2022-12-01T12:44:25;98384.91;;;24.24;34.74
50057;BME280;36875;49.468;11.200;2022-12-01T12:46:59;98377.69;;;24.11;34.78
50057;BME280;36875;49.468;11.200;2022-12-01T12:49:35;98382.88;;;24.03;34.99
50057;BME280;36875;49.468;11.200;2022-12-01T12:52:07;98378.00;;;24.09;34.74
50057;BME280;36875;49.468;11.200;2022-12-01T12:54:42;98367.69;;;23.97;35.44
50057;BME280;36875;49.468;11.200;2022-12-01T12:57:23;98374.78;;;23.98;35.25
50057;BME280;36875;49.468;11.200;2022-12-01T12:59:54;98376.91;;;23.93;35.17
50057;BME280;36875;49.468;11.200;2022-12-01T13:02:26;98373.97;;;24.07;35.21
50057;BME280;36875;49.468;11.200;2022-12-01T13:04:58;98366.06;;;23.96;35.78